createdAt,value
2023-02-09T00:00:22.103Z,21.70
2023-02-09T00:02:50.936Z,20.73
2023-02-09T00:05:17.781Z,18.77
2023-02-09T00:07:44.494Z,18.63
2023-02-09T00:10:14.110Z,20.37
2023-02-09T00:12:59.544Z,18.43
2023-02-09T00:15:26.328Z,18.33
2023-02-09T00:17:52.956Z,19.77
2023-02-09T00:20:19.785Z,18.43
2023-02-09T00:22:46.452Z,19.57
2023-02-09T00:25:13.111Z,18.47
2023-02-09T00:27:39.722Z,21.03
2023-02-09T00:30:06.858Z,18.23
2023-02-09T00:32:33.509Z,18.37
2023-02-09T00:35:00.133Z,18.47
2023-02-09T00:37:26.790Z,19.73
2023-02-09T00:39:53.418Z,17.13
2023-02-09T00:42:20.041Z,18.33
2023-02-09T00:44:46.693Z,16.27
2023-02-09T00:47:13.397Z,18.37
2023-02-09T00:49:40.116Z,17.83
2023-02-09T00:52:08.878Z,18.23
2023-02-09T00:54:36.477Z,18.83
2023-02-09T00:57:05.826Z,17.90
2023-02-09T00:59:34.645Z,17.83
2023-02-09T01:02:01.966Z,16.13
2023-02-09T01:04:28.649Z,19.13
2023-02-09T01:06:55.473Z,15.83
2023-02-09T01:09:22.122Z,19.33
2023-02-09T01:11:48.815Z,17.47
2023-02-09T01:14:15.697Z,18.03
2023-02-09T01:16:42.454Z,15.90
2023-02-09T01:19:12.176Z,16.23
2023-02-09T01:21:39.061Z,16.37
2023-02-09T01:24:06.318Z,19.13
2023-02-09T01:26:33.163Z,19.50
2023-02-09T01:28:59.786Z,17.57
2023-02-09T01:31:29.198Z,17.73
2023-02-09T01:33:58.257Z,19.43
2023-02-09T01:36:25.651Z,17.20
2023-02-09T01:38:55.503Z,16.70
2023-02-09T01:41:22.469Z,20.67
2023-02-09T01:43:55.578Z,17.40
2023-02-09T01:46:25.001Z,14.90
2023-02-09T01:49:06.435Z,17.70
2023-02-09T01:51:38.079Z,17.80
2023-02-09T01:54:12.271Z,16.50
2023-02-09T01:56:43.721Z,15.73
2023-02-09T01:59:10.777Z,18.20
2023-02-09T02:01:38.088Z,17.67
2023-02-09T02:04:05.433Z,16.60
2023-02-09T02:06:32.824Z,14.00
2023-02-09T02:09:04.580Z,16.37
2023-02-09T02:11:32.867Z,15.13
2023-02-09T02:13:59.639Z,18.10
2023-02-09T02:16:31.408Z,15.47
2023-02-09T02:19:27.193Z,17.47
2023-02-09T02:22:18.981Z,18.63
2023-02-09T02:25:03.481Z,18.50
2023-02-09T02:27:41.671Z,15.10
2023-02-09T02:30:36.388Z,17.33
2023-02-09T02:33:37.139Z,15.40
2023-02-09T02:36:12.711Z,19.53
2023-02-09T02:38:53.616Z,16.80
2023-02-09T02:41:57.238Z,15.63
2023-02-09T02:44:27.830Z,19.63
2023-02-09T02:46:59.634Z,17.73
2023-02-09T02:49:50.606Z,15.63
2023-02-09T02:52:17.471Z,17.07
2023-02-09T02:54:53.916Z,16.47
2023-02-09T02:57:26.337Z,15.80
2023-02-09T02:59:57.130Z,12.47
2023-02-09T03:02:29.038Z,12.27
2023-02-09T03:04:58.045Z,20.03
2023-02-09T03:07:24.700Z,15.17
2023-02-09T03:09:53.647Z,15.53
2023-02-09T03:12:34.278Z,17.30
2023-02-09T03:15:21.023Z,12.47
2023-02-09T03:18:10.780Z,16.90
2023-02-09T03:20:56.246Z,14.13
2023-02-09T03:23:51.965Z,13.53
2023-02-09T03:26:27.858Z,13.10
2023-02-09T03:28:57.701Z,13.03
2023-02-09T03:31:25.463Z,12.73
2023-02-09T03:33:52.322Z,14.00
2023-02-09T03:36:20.923Z,12.97
2023-02-09T03:38:47.614Z,15.20
2023-02-09T03:41:14.688Z,15.93
2023-02-09T03:43:59.791Z,14.10
2023-02-09T03:46:26.441Z,14.53
2023-02-09T03:48:53.161Z,14.40
2023-02-09T03:51:19.810Z,12.40
2023-02-09T03:53:49.528Z,13.57
2023-02-09T03:56:16.390Z,15.47
2023-02-09T03:58:42.993Z,13.97
2023-02-09T04:01:10.964Z,16.77
2023-02-09T04:03:39.781Z,13.37
2023-02-09T04:06:06.567Z,14.87
2023-02-09T04:08:33.742Z,16.20
2023-02-09T04:11:00.392Z,15.60
2023-02-09T04:13:27.026Z,13.53
2023-02-09T04:15:54.001Z,12.60
2023-02-09T04:18:21.380Z,12.47
2023-02-09T04:20:48.226Z,13.20
2023-02-09T04:23:15.257Z,14.00
2023-02-09T04:25:42.041Z,15.13
2023-02-09T04:28:08.775Z,12.90
2023-02-09T04:30:35.498Z,11.73
2023-02-09T04:33:02.218Z,12.47
2023-02-09T04:35:28.810Z,13.60
2023-02-09T04:37:55.444Z,15.00
2023-02-09T04:40:22.137Z,13.37
2023-02-09T04:42:48.787Z,12.33
2023-02-09T04:45:15.437Z,12.20
2023-02-09T04:47:42.053Z,12.87
2023-02-09T04:50:09.064Z,13.27
2023-02-09T04:52:35.704Z,16.17
2023-02-09T04:55:02.440Z,10.67
2023-02-09T04:57:47.579Z,13.30
2023-02-09T05:00:14.520Z,13.07
2023-02-09T05:02:41.101Z,14.93
2023-02-09T05:05:07.843Z,15.03
2023-02-09T05:07:34.554Z,17.03
2023-02-09T05:10:01.139Z,21.47
2023-02-09T05:12:27.759Z,19.97
2023-02-09T05:14:54.369Z,17.63
2023-02-09T05:17:21.111Z,20.40
2023-02-09T05:19:48.604Z,20.87
2023-02-09T05:22:15.685Z,16.57
2023-02-09T05:24:42.302Z,19.97
2023-02-09T05:27:08.888Z,18.10
2023-02-09T05:29:35.507Z,19.57
2023-02-09T05:32:02.240Z,18.83
2023-02-09T05:34:28.927Z,17.40
2023-02-09T05:36:55.557Z,19.07
2023-02-09T05:39:22.572Z,15.43
2023-02-09T05:42:07.992Z,20.03
2023-02-09T05:44:34.686Z,15.40
2023-02-09T05:47:01.282Z,17.27
2023-02-09T05:49:27.909Z,17.67
2023-02-09T05:51:54.534Z,16.07
2023-02-09T05:54:21.292Z,21.27
2023-02-09T05:56:48.187Z,17.40
2023-02-09T05:59:14.807Z,14.30
2023-02-09T06:01:41.513Z,15.93
2023-02-09T06:04:09.041Z,15.97
2023-02-09T06:06:36.090Z,17.50
2023-02-09T06:09:03.014Z,15.10
2023-02-09T06:11:29.673Z,19.43
2023-02-09T06:13:56.320Z,16.77
2023-02-09T06:16:23.021Z,14.97
2023-02-09T06:18:49.625Z,17.20
2023-02-09T06:21:16.265Z,16.17
2023-02-09T06:23:42.881Z,15.77
2023-02-09T06:26:11.721Z,15.00
2023-02-09T06:28:39.108Z,14.73
2023-02-09T06:31:06.562Z,19.40
2023-02-09T06:33:34.713Z,19.37
2023-02-09T06:36:01.674Z,18.17
2023-02-09T06:38:31.237Z,18.23
2023-02-09T06:40:57.903Z,18.20
2023-02-09T06:43:24.577Z,18.10
2023-02-09T06:45:51.315Z,21.50
2023-02-09T06:48:18.107Z,23.30
2023-02-09T06:50:45.267Z,18.13
2023-02-09T06:53:12.514Z,15.97
2023-02-09T06:55:39.244Z,22.27
2023-02-09T06:58:05.872Z,20.27
2023-02-09T07:00:32.677Z,21.83
2023-02-09T07:02:59.733Z,18.53
2023-02-09T07:05:26.868Z,20.03
2023-02-09T07:07:53.510Z,20.10
2023-02-09T07:10:20.233Z,21.37
2023-02-09T07:12:46.923Z,17.97
2023-02-09T07:15:15.656Z,24.03
2023-02-09T07:17:42.373Z,20.43
2023-02-09T07:20:10.216Z,19.67
2023-02-09T07:22:36.887Z,24.17
2023-02-09T07:25:03.809Z,18.07
2023-02-09T07:27:30.517Z,23.30
2023-02-09T07:29:57.836Z,21.37
2023-02-09T07:32:25.005Z,19.07
2023-02-09T07:34:51.688Z,26.23
2023-02-09T07:37:18.386Z,22.07
2023-02-09T07:39:45.085Z,21.93
2023-02-09T07:42:11.840Z,20.97
2023-02-09T07:44:38.542Z,21.83
2023-02-09T07:47:05.208Z,19.47
2023-02-09T07:49:35.072Z,19.37
2023-02-09T07:52:01.822Z,18.43
2023-02-09T07:54:28.536Z,19.17
2023-02-09T07:56:55.944Z,17.73
2023-02-09T07:59:22.777Z,19.80
2023-02-09T08:01:49.763Z,18.23
2023-02-09T08:04:16.457Z,19.40
2023-02-09T08:06:45.408Z,16.97
2023-02-09T08:09:14.018Z,20.43
2023-02-09T08:12:01.286Z,19.20
2023-02-09T08:14:50.544Z,19.03
2023-02-09T08:17:20.351Z,19.97
2023-02-09T08:20:04.639Z,15.80
2023-02-09T08:22:34.847Z,13.90
2023-02-09T08:25:02.741Z,13.33
2023-02-09T08:27:30.119Z,14.97
2023-02-09T08:30:00.386Z,14.67
2023-02-09T08:32:27.029Z,16.47
2023-02-09T08:34:53.629Z,12.70
2023-02-09T08:37:20.245Z,14.60
2023-02-09T08:39:46.924Z,14.67
2023-02-09T08:42:13.612Z,13.67
2023-02-09T08:44:40.204Z,13.77
2023-02-09T08:47:06.872Z,12.40
2023-02-09T08:49:33.568Z,11.33
2023-02-09T08:52:00.213Z,12.77
2023-02-09T08:54:27.006Z,10.77
2023-02-09T08:56:53.820Z,12.73
2023-02-09T08:59:21.872Z,13.33
2023-02-09T09:01:48.533Z,11.57
2023-02-09T09:04:15.189Z,12.60
2023-02-09T09:06:41.801Z,11.97
2023-02-09T09:09:08.638Z,12.80
2023-02-09T09:11:35.352Z,9.90
2023-02-09T09:14:02.026Z,12.90
2023-02-09T09:16:28.693Z,14.70
2023-02-09T09:18:55.416Z,14.03
2023-02-09T09:21:22.030Z,11.50
2023-02-09T09:23:48.786Z,11.50
2023-02-09T09:26:17.189Z,12.63
2023-02-09T09:28:44.641Z,12.10
2023-02-09T09:31:14.703Z,12.93
2023-02-09T09:33:41.803Z,11.27
2023-02-09T09:36:09.045Z,10.17
2023-02-09T09:38:36.800Z,10.60
2023-02-09T09:41:05.787Z,12.53
2023-02-09T09:43:38.200Z,11.83
2023-02-09T09:46:07.749Z,10.83
2023-02-09T09:48:53.226Z,11.20
2023-02-09T09:51:34.549Z,10.77
2023-02-09T09:54:04.228Z,11.43
2023-02-09T09:56:32.280Z,11.70
2023-02-09T09:59:01.084Z,13.47
2023-02-09T10:01:32.563Z,12.83
2023-02-09T10:04:02.077Z,10.17
2023-02-09T10:06:33.702Z,9.03
2023-02-09T10:09:10.277Z,9.87
2023-02-09T10:11:45.463Z,9.23
2023-02-09T10:14:12.079Z,8.33
2023-02-09T10:16:39.017Z,12.20
2023-02-09T10:19:17.529Z,10.73
2023-02-09T10:21:44.409Z,10.73
2023-02-09T10:24:21.522Z,11.27
2023-02-09T10:27:05.036Z,12.97
2023-02-09T10:29:31.693Z,10.80
2023-02-09T10:32:18.586Z,11.57
2023-02-09T10:34:54.598Z,13.00
2023-02-09T10:37:24.012Z,12.87
2023-02-09T10:40:25.462Z,11.70
2023-02-09T10:43:05.681Z,10.90
2023-02-09T10:45:39.557Z,15.87
2023-02-09T10:48:26.284Z,11.40
2023-02-09T10:50:52.859Z,13.53
2023-02-09T10:53:23.891Z,12.93
2023-02-09T10:55:51.183Z,14.30
2023-02-09T10:58:25.750Z,13.03
2023-02-09T11:01:01.338Z,12.97
2023-02-09T11:03:28.978Z,14.20
2023-02-09T11:06:19.039Z,13.67
2023-02-09T11:09:01.141Z,13.00
2023-02-09T11:11:35.147Z,12.80
2023-02-09T11:14:03.076Z,15.27
2023-02-09T11:17:00.621Z,12.97
2023-02-09T11:19:44.045Z,14.80
2023-02-09T11:22:35.558Z,13.10
2023-02-09T11:25:34.378Z,13.17
2023-02-09T11:28:19.116Z,16.73
2023-02-09T11:31:09.297Z,16.90
2023-02-09T11:33:57.890Z,12.13
2023-02-09T11:36:42.637Z,16.93
2023-02-09T11:39:27.281Z,13.67
2023-02-09T11:42:22.022Z,15.30
2023-02-09T11:44:57.946Z,13.33
2023-02-09T11:47:47.374Z,15.80
2023-02-09T11:50:36.075Z,14.97
2023-02-09T11:53:11.306Z,14.37
2023-02-09T11:55:45.870Z,14.70
2023-02-09T11:58:45.570Z,15.37
2023-02-09T12:01:36.562Z,14.87
2023-02-09T12:04:09.130Z,14.57
2023-02-09T12:06:43.247Z,14.50
2023-02-09T12:09:31.043Z,18.73
2023-02-09T12:12:12.528Z,15.70
2023-02-09T12:15:12.838Z,15.80
2023-02-09T12:17:48.973Z,15.97
2023-02-09T12:20:45.137Z,15.63
2023-02-09T12:23:34.689Z,15.00
2023-02-09T12:26:01.317Z,17.97
2023-02-09T12:28:28.680Z,15.57
2023-02-09T12:31:01.676Z,17.37
2023-02-09T12:33:35.289Z,17.27
2023-02-09T12:36:12.599Z,18.37
2023-02-09T12:38:55.703Z,18.03
2023-02-09T12:41:29.334Z,16.37
2023-02-09T12:44:11.138Z,17.30
2023-02-09T12:46:55.516Z,16.30
2023-02-09T12:49:33.468Z,15.30
2023-02-09T12:52:03.161Z,19.07
2023-02-09T12:54:57.998Z,18.57
2023-02-09T12:57:49.085Z,22.77
2023-02-09T13:00:18.784Z,17.20
2023-02-09T13:02:55.326Z,22.23
2023-02-09T13:05:26.320Z,16.90
2023-02-09T13:08:11.019Z,22.77
2023-02-09T13:10:57.826Z,22.43
2023-02-09T13:13:46.280Z,19.13
2023-02-09T13:16:51.523Z,19.93
2023-02-09T13:19:45.847Z,20.40
2023-02-09T13:22:47.149Z,19.07
2023-02-09T13:25:19.520Z,17.50
2023-02-09T13:27:49.407Z,21.40
2023-02-09T13:30:32.452Z,19.47
2023-02-09T13:33:12.360Z,18.77
2023-02-09T13:36:00.145Z,19.10
2023-02-09T13:38:30.515Z,20.13
2023-02-09T13:40:58.164Z,18.33
2023-02-09T13:43:28.515Z,21.33
2023-02-09T13:45:57.212Z,22.53
2023-02-09T13:48:30.182Z,19.60
2023-02-09T13:51:00.371Z,20.33
2023-02-09T13:53:29.008Z,18.73
2023-02-09T13:56:00.412Z,20.90
2023-02-09T13:58:35.267Z,21.27
2023-02-09T14:01:15.204Z,22.97
2023-02-09T14:04:02.226Z,22.80
2023-02-09T14:06:43.598Z,18.97
2023-02-09T14:09:17.765Z,19.30
2023-02-09T14:11:50.162Z,21.67
2023-02-09T14:14:21.452Z,24.03
2023-02-09T14:16:53.690Z,20.80
2023-02-09T14:19:30.919Z,22.70
2023-02-09T14:21:57.635Z,20.83
2023-02-09T14:24:26.264Z,18.90
2023-02-09T14:27:16.205Z,20.73
2023-02-09T14:29:47.109Z,20.63
2023-02-09T14:32:40.216Z,21.43
2023-02-09T14:35:23.275Z,20.97
2023-02-09T14:37:52.757Z,23.07
2023-02-09T14:40:31.541Z,25.10
2023-02-09T14:43:27.195Z,24.73
2023-02-09T14:46:01.451Z,22.40
2023-02-09T14:48:30.192Z,24.07
2023-02-09T14:51:00.016Z,22.10
2023-02-09T14:53:29.986Z,23.73
2023-02-09T14:55:57.889Z,23.20
2023-02-09T14:58:27.577Z,27.17
2023-02-09T15:00:56.757Z,22.77
2023-02-09T15:03:23.820Z,25.93
2023-02-09T15:05:52.360Z,21.83
2023-02-09T15:08:23.103Z,21.77
2023-02-09T15:11:00.442Z,22.60
2023-02-09T15:13:32.456Z,24.30
2023-02-09T15:15:59.136Z,25.80
2023-02-09T15:18:28.522Z,25.73
2023-02-09T15:20:55.578Z,25.03
2023-02-09T15:23:22.452Z,23.73
2023-02-09T15:25:51.777Z,22.70
2023-02-09T15:28:30.849Z,22.33
2023-02-09T15:30:58.848Z,21.73
2023-02-09T15:33:26.736Z,23.10
2023-02-09T15:35:53.637Z,24.93
2023-02-09T15:38:20.776Z,22.77
2023-02-09T15:41:07.895Z,22.23
2023-02-09T15:43:53.520Z,25.07
2023-02-09T15:46:39.651Z,23.50
2023-02-09T15:49:07.253Z,22.67
2023-02-09T15:51:36.994Z,24.63
2023-02-09T15:54:07.904Z,22.03
2023-02-09T15:56:37.210Z,24.87
2023-02-09T15:59:05.547Z,23.90
2023-02-09T16:01:35.661Z,23.37
2023-02-09T16:04:13.426Z,22.27
2023-02-09T16:06:46.519Z,22.07
2023-02-09T16:09:27.676Z,24.77
2023-02-09T16:11:55.170Z,31.63
2023-02-09T16:14:24.125Z,23.33
2023-02-09T16:16:50.982Z,20.00
2023-02-09T16:19:18.271Z,22.83
2023-02-09T16:21:49.150Z,23.80
2023-02-09T16:24:29.927Z,26.30
2023-02-09T16:27:10.782Z,26.33
2023-02-09T16:29:37.506Z,24.57
2023-02-09T16:32:06.126Z,23.10
2023-02-09T16:34:32.791Z,21.87
2023-02-09T16:36:59.767Z,25.13
2023-02-09T16:39:26.465Z,23.40
2023-02-09T16:41:53.573Z,21.70
2023-02-09T16:44:25.757Z,26.40
2023-02-09T16:46:55.117Z,23.93
2023-02-09T16:49:27.737Z,22.17
2023-02-09T16:51:57.527Z,20.90
2023-02-09T16:54:24.307Z,26.53
2023-02-09T16:56:54.589Z,30.80
2023-02-09T16:59:21.753Z,25.67
2023-02-09T17:01:49.162Z,27.10
2023-02-09T17:04:15.937Z,26.47
2023-02-09T17:06:42.761Z,25.73
2023-02-09T17:09:15.267Z,29.93
2023-02-09T17:11:42.096Z,24.47
2023-02-09T17:14:09.207Z,25.97
2023-02-09T17:16:38.847Z,24.70
2023-02-09T17:19:12.662Z,29.90
2023-02-09T17:21:40.225Z,27.60
2023-02-09T17:24:13.341Z,24.27
2023-02-09T17:26:40.546Z,24.43
2023-02-09T17:29:07.683Z,27.47
2023-02-09T17:31:50.685Z,28.53
2023-02-09T17:34:20.535Z,30.50
2023-02-09T17:36:47.471Z,29.00
2023-02-09T17:39:14.193Z,29.63
2023-02-09T17:41:46.427Z,29.37
2023-02-09T17:44:26.341Z,31.03
2023-02-09T17:47:03.475Z,29.97
2023-02-09T17:49:30.331Z,29.03
2023-02-09T17:51:57.234Z,33.20
2023-02-09T17:54:23.940Z,32.20
2023-02-09T17:56:50.578Z,38.57
2023-02-09T17:59:19.837Z,33.60
2023-02-09T18:01:50.019Z,31.23
2023-02-09T18:04:19.885Z,33.87
2023-02-09T18:06:47.573Z,36.80
2023-02-09T18:09:14.901Z,36.97
2023-02-09T18:11:44.746Z,38.20
2023-02-09T18:14:17.971Z,35.80
2023-02-09T18:16:47.375Z,35.17
2023-02-09T18:19:15.841Z,31.37
2023-02-09T18:21:50.891Z,28.33
2023-02-09T18:24:20.027Z,27.97
2023-02-09T18:26:47.768Z,31.40
2023-02-09T18:29:15.022Z,29.03
2023-02-09T18:31:41.766Z,29.60
2023-02-09T18:34:09.422Z,31.53
2023-02-09T18:36:36.277Z,32.93
2023-02-09T18:39:03.776Z,30.80
2023-02-09T18:41:30.443Z,34.43
2023-02-09T18:43:57.446Z,33.57
2023-02-09T18:46:25.455Z,35.73
2023-02-09T18:48:52.937Z,32.30
2023-02-09T18:51:20.147Z,31.93
2023-02-09T18:53:48.549Z,31.73
2023-02-09T18:56:21.275Z,39.47
2023-02-09T18:58:50.370Z,34.73
2023-02-09T19:01:20.122Z,37.23
2023-02-09T19:03:49.906Z,39.87
2023-02-09T19:06:16.611Z,37.30
2023-02-09T19:08:43.785Z,36.07
2023-02-09T19:11:13.758Z,40.57
2023-02-09T19:13:40.445Z,34.10
2023-02-09T19:16:12.292Z,38.20
2023-02-09T19:18:39.473Z,40.30
2023-02-09T19:21:07.172Z,35.67
2023-02-09T19:23:34.237Z,38.47
2023-02-09T19:26:05.267Z,39.00
2023-02-09T19:28:32.054Z,39.60
2023-02-09T19:30:59.023Z,36.67
2023-02-09T19:33:25.752Z,37.43
2023-02-09T19:35:57.488Z,35.73
2023-02-09T19:38:25.432Z,45.20
2023-02-09T19:41:05.230Z,38.27
2023-02-09T19:43:36.653Z,38.67
2023-02-09T19:46:04.439Z,35.80
2023-02-09T19:48:31.627Z,36.60
2023-02-09T19:50:59.484Z,33.47
2023-02-09T19:53:26.884Z,37.20
2023-02-09T19:55:54.210Z,40.10
2023-02-09T19:58:21.732Z,36.93
2023-02-09T20:00:56.532Z,39.33
2023-02-09T20:03:24.116Z,37.03
2023-02-09T20:05:50.983Z,43.43
2023-02-09T20:08:19.912Z,42.17
2023-02-09T20:10:47.744Z,36.10
2023-02-09T20:13:15.807Z,37.57
2023-02-09T20:15:44.094Z,37.63
2023-02-09T20:18:12.742Z,39.27
2023-02-09T20:20:43.540Z,38.83
2023-02-09T20:23:11.268Z,42.43
2023-02-09T20:25:43.041Z,39.77
2023-02-09T20:28:13.352Z,39.50
2023-02-09T20:30:42.850Z,37.10
2023-02-09T20:33:10.275Z,45.43
2023-02-09T20:35:41.694Z,39.40
2023-02-09T20:38:09.750Z,36.27
2023-02-09T20:40:38.471Z,39.03
2023-02-09T20:43:23.911Z,37.70
2023-02-09T20:46:09.316Z,37.13
2023-02-09T20:48:36.113Z,39.83
2023-02-09T20:51:04.119Z,40.30
2023-02-09T20:53:31.925Z,40.23
2023-02-09T20:55:59.466Z,44.77
2023-02-09T20:58:26.191Z,44.00
2023-02-09T21:00:53.308Z,40.53
2023-02-09T21:03:20.150Z,42.47
2023-02-09T21:05:46.972Z,43.13
2023-02-09T21:08:13.612Z,44.50
2023-02-09T21:10:40.351Z,44.00
2023-02-09T21:13:08.610Z,42.17
2023-02-09T21:15:41.472Z,42.37
2023-02-09T21:18:08.243Z,43.43
2023-02-09T21:20:35.332Z,39.27
2023-02-09T21:23:02.182Z,44.63
2023-02-09T21:25:28.930Z,42.97
2023-02-09T21:27:55.831Z,45.33
2023-02-09T21:30:22.731Z,47.33
2023-02-09T21:32:49.406Z,46.17
2023-02-09T21:35:16.352Z,41.37
2023-02-09T21:37:43.180Z,39.73
2023-02-09T21:40:12.161Z,44.43
2023-02-09T21:42:39.547Z,42.13
2023-02-09T21:45:07.944Z,47.87
2023-02-09T21:47:38.084Z,38.67
2023-02-09T21:50:06.704Z,40.63
2023-02-09T21:52:36.716Z,38.43
2023-02-09T21:55:04.434Z,39.87
2023-02-09T21:57:31.254Z,40.40
2023-02-09T21:59:59.763Z,42.47
2023-02-09T22:02:27.373Z,45.63
2023-02-09T22:04:54.171Z,40.17
2023-02-09T22:07:20.807Z,41.53
2023-02-09T22:09:47.493Z,41.67
2023-02-09T22:12:14.188Z,37.07
2023-02-09T22:14:40.860Z,44.47
2023-02-09T22:17:07.506Z,41.60
2023-02-09T22:19:34.666Z,40.20
2023-02-09T22:22:01.608Z,44.77
2023-02-09T22:24:29.941Z,41.43
2023-02-09T22:26:57.800Z,40.13
2023-02-09T22:29:25.214Z,48.30
2023-02-09T22:31:52.030Z,42.67
2023-02-09T22:34:19.780Z,45.90
2023-02-09T22:36:50.921Z,45.63
2023-02-09T22:39:17.617Z,44.67
2023-02-09T22:41:47.260Z,49.20
2023-02-09T22:44:15.717Z,43.60
2023-02-09T22:46:44.132Z,38.80
2023-02-09T22:49:17.435Z,44.03
2023-02-09T22:51:45.525Z,43.90
2023-02-09T22:54:17.107Z,40.30
2023-02-09T22:56:44.426Z,40.90
2023-02-09T22:59:13.139Z,38.60
2023-02-09T23:01:40.256Z,42.50
2023-02-09T23:04:07.177Z,41.57
2023-02-09T23:06:34.018Z,44.27
2023-02-09T23:09:03.985Z,41.77
2023-02-09T23:11:31.553Z,40.23
2023-02-09T23:14:09.267Z,44.40
2023-02-09T23:16:37.480Z,43.87
2023-02-09T23:19:06.972Z,40.67
2023-02-09T23:21:37.725Z,41.40
2023-02-09T23:24:11.399Z,40.90
2023-02-09T23:26:44.539Z,44.00
2023-02-09T23:29:13.056Z,37.80
2023-02-09T23:31:40.433Z,42.77
2023-02-09T23:34:07.651Z,41.50
2023-02-09T23:36:35.229Z,41.60
2023-02-09T23:39:07.815Z,41.23
2023-02-09T23:41:35.123Z,44.77
2023-02-09T23:44:03.844Z,40.70
2023-02-09T23:46:31.097Z,41.10
2023-02-09T23:48:58.503Z,45.23
2023-02-09T23:51:34.312Z,39.97
2023-02-09T23:54:04.260Z,45.97
2023-02-09T23:56:36.691Z,39.93
2023-02-09T23:59:08.928Z,42.97
